createdAt,value
2023-05-08T00:00:05.183Z,101232.94
2023-05-08T00:02:32.770Z,101231.13
2023-05-08T00:05:00.467Z,101233.91
2023-05-08T00:07:27.901Z,101244.47
2023-05-08T00:09:56.661Z,101247.78
2023-05-08T00:12:24.063Z,101244.47
2023-05-08T00:14:51.432Z,101240.09
2023-05-08T00:17:18.885Z,101234.28
2023-05-08T00:19:46.287Z,101233.28
2023-05-08T00:22:13.647Z,101235.94
2023-05-08T00:24:41.422Z,101228.75
2023-05-08T00:27:10.117Z,101230.38
2023-05-08T00:29:37.775Z,101224.47
2023-05-08T00:32:05.509Z,101239.78
2023-05-08T00:34:32.959Z,101235.16
2023-05-08T00:37:00.497Z,101225.97
2023-05-08T00:39:27.891Z,101233.34
2023-05-08T00:41:55.274Z,101230.00
2023-05-08T00:44:23.995Z,101231.38
2023-05-08T00:46:51.611Z,101232.38
2023-05-08T00:49:20.127Z,101229.28
2023-05-08T00:51:51.282Z,101223.19
2023-05-08T00:54:19.074Z,101232.97
2023-05-08T00:56:46.938Z,101226.66
2023-05-08T00:59:15.502Z,101230.63
2023-05-08T01:01:45.042Z,101246.94
2023-05-08T01:04:12.612Z,101233.41
2023-05-08T01:06:40.085Z,101238.97
2023-05-08T01:09:08.012Z,101243.53
2023-05-08T01:11:42.373Z,101231.25
2023-05-08T01:14:14.586Z,101228.25
2023-05-08T01:16:48.201Z,101233.47
2023-05-08T01:19:53.867Z,101228.44
2023-05-08T01:22:34.814Z,101227.38
2023-05-08T01:25:24.734Z,101240.09
2023-05-08T01:28:08.939Z,101239.94
2023-05-08T01:31:08.154Z,101230.75
2023-05-08T01:33:42.666Z,101226.13
2023-05-08T01:36:20.516Z,101239.94
2023-05-08T01:38:54.918Z,101246.69
2023-05-08T01:41:28.078Z,101249.72
2023-05-08T01:44:06.577Z,101248.59
2023-05-08T01:46:34.778Z,101255.53
2023-05-08T01:49:07.685Z,101249.81
2023-05-08T01:51:41.185Z,101251.41
2023-05-08T01:54:11.966Z,101253.97
2023-05-08T01:56:43.461Z,101247.63
2023-05-08T01:59:13.658Z,101245.88
2023-05-08T02:01:42.591Z,101246.50
2023-05-08T02:04:13.864Z,101245.16
2023-05-08T02:06:41.902Z,101248.19
2023-05-08T02:09:11.201Z,101251.84
2023-05-08T02:11:40.624Z,101245.41
2023-05-08T02:14:09.516Z,101248.78
2023-05-08T02:16:38.697Z,101245.25
2023-05-08T02:19:09.006Z,101248.53
2023-05-08T02:21:38.414Z,101246.59
2023-05-08T02:24:07.234Z,101252.47
2023-05-08T02:26:35.903Z,101251.13
2023-05-08T02:29:04.372Z,101252.00
2023-05-08T02:31:31.970Z,101258.34
2023-05-08T02:34:03.730Z,101257.81
2023-05-08T02:36:32.890Z,101251.44
2023-05-08T02:39:03.748Z,101260.06
2023-05-08T02:41:34.571Z,101258.44
2023-05-08T02:44:02.285Z,101259.22
2023-05-08T02:46:43.300Z,101259.81
2023-05-08T02:49:19.690Z,101255.38
2023-05-08T02:51:54.689Z,101256.00
2023-05-08T02:54:33.032Z,101256.47
2023-05-08T02:57:04.672Z,101251.78
2023-05-08T02:59:39.251Z,101256.19
2023-05-08T03:02:11.793Z,101260.97
2023-05-08T03:04:46.412Z,101260.66
2023-05-08T03:07:13.959Z,101259.31
2023-05-08T03:09:48.746Z,101264.28
2023-05-08T03:12:21.754Z,101273.97
2023-05-08T03:14:56.285Z,101276.75
2023-05-08T03:17:27.084Z,101269.25
2023-05-08T03:20:00.568Z,101278.63
2023-05-08T03:22:31.186Z,101267.28
2023-05-08T03:25:02.438Z,101268.13
2023-05-08T03:27:31.048Z,101257.94
2023-05-08T03:29:59.276Z,101262.09
2023-05-08T03:32:27.405Z,101270.69
2023-05-08T03:34:56.305Z,101269.00
2023-05-08T03:37:23.753Z,101263.41
2023-05-08T03:39:52.232Z,101268.38
2023-05-08T03:42:22.105Z,101271.69
2023-05-08T03:44:51.169Z,101271.78
2023-05-08T03:47:19.503Z,101273.94
2023-05-08T03:49:48.145Z,101278.38
2023-05-08T03:52:16.125Z,101265.34
2023-05-08T03:54:43.569Z,101269.50
2023-05-08T03:57:11.153Z,101276.31
2023-05-08T03:59:48.113Z,101268.00
2023-05-08T04:02:22.558Z,101272.97
2023-05-08T04:04:56.446Z,101279.38
2023-05-08T04:07:29.648Z,101281.78
2023-05-08T04:10:04.677Z,101290.16
2023-05-08T04:12:38.499Z,101286.19
2023-05-08T04:15:11.945Z,101283.03
2023-05-08T04:17:43.398Z,101287.69
2023-05-08T04:20:14.719Z,101283.25
2023-05-08T04:22:43.370Z,101289.41
2023-05-08T04:25:13.623Z,101294.28
2023-05-08T04:27:43.623Z,101297.84
2023-05-08T04:30:13.807Z,101293.84
2023-05-08T04:32:44.249Z,101295.28
2023-05-08T04:35:14.471Z,101304.63
2023-05-08T04:37:43.699Z,101290.41
2023-05-08T04:40:12.526Z,101305.59
2023-05-08T04:42:42.840Z,101294.72
2023-05-08T04:45:12.522Z,101302.84
2023-05-08T04:47:40.164Z,101297.53
2023-05-08T04:50:08.232Z,101304.38
2023-05-08T04:52:36.002Z,101305.13
2023-05-08T04:55:03.470Z,101316.44
2023-05-08T04:57:30.869Z,101311.78
2023-05-08T04:59:58.513Z,101329.38
2023-05-08T05:02:27.902Z,101326.50
2023-05-08T05:04:58.649Z,101306.41
2023-05-08T05:07:26.067Z,101323.22
2023-05-08T05:09:53.470Z,101320.75
2023-05-08T05:12:20.892Z,101317.56
2023-05-08T05:14:48.296Z,101313.84
2023-05-08T05:17:15.672Z,101318.81
2023-05-08T05:19:44.382Z,101316.09
2023-05-08T05:22:11.811Z,101326.03
2023-05-08T05:24:39.778Z,101315.16
2023-05-08T05:27:07.223Z,101320.84
2023-05-08T05:29:34.648Z,101320.78
2023-05-08T05:32:03.188Z,101317.47
2023-05-08T05:34:30.653Z,101320.94
2023-05-08T05:36:59.516Z,101322.25
2023-05-08T05:39:26.968Z,101324.41
2023-05-08T05:41:54.407Z,101317.84
2023-05-08T05:44:21.812Z,101326.38
2023-05-08T05:46:49.197Z,101330.09
2023-05-08T05:49:16.597Z,101316.03
2023-05-08T05:51:43.988Z,101319.47
2023-05-08T05:54:12.699Z,101319.47
2023-05-08T05:56:40.166Z,101330.16
2023-05-08T05:59:07.563Z,101327.63
2023-05-08T06:01:34.987Z,101330.69
2023-05-08T06:04:02.454Z,101329.88
2023-05-08T06:06:29.991Z,101329.00
2023-05-08T06:08:57.414Z,101325.09
2023-05-08T06:11:26.117Z,101328.47
2023-05-08T06:13:53.556Z,101329.91
2023-05-08T06:16:23.008Z,101331.56
2023-05-08T06:18:50.461Z,101327.56
2023-05-08T06:21:18.179Z,101323.03
2023-05-08T06:23:45.577Z,101317.00
2023-05-08T06:26:13.135Z,101324.47
2023-05-08T06:28:41.899Z,101323.25
2023-05-08T06:31:09.330Z,101332.13
2023-05-08T06:33:36.753Z,101331.22
2023-05-08T06:36:05.171Z,101333.53
2023-05-08T06:38:32.999Z,101335.06
2023-05-08T06:41:00.817Z,101325.47
2023-05-08T06:43:28.202Z,101328.78
2023-05-08T06:45:57.017Z,101328.41
2023-05-08T06:48:28.914Z,101335.53
2023-05-08T06:50:56.398Z,101332.69
2023-05-08T06:53:23.840Z,101335.13
2023-05-08T06:55:51.274Z,101329.78
2023-05-08T06:58:18.701Z,101326.28
2023-05-08T07:00:46.069Z,101327.31
2023-05-08T07:03:14.937Z,101321.84
2023-05-08T07:05:42.525Z,101317.72
2023-05-08T07:08:09.902Z,101330.91
2023-05-08T07:10:38.148Z,101322.47
2023-05-08T07:13:05.567Z,101325.38
2023-05-08T07:15:33.086Z,101314.72
2023-05-08T07:18:00.676Z,101317.56
2023-05-08T07:20:29.411Z,101324.38
2023-05-08T07:22:56.791Z,101324.69
2023-05-08T07:25:24.177Z,101320.84
2023-05-08T07:27:51.630Z,101315.72
2023-05-08T07:30:19.137Z,101308.47
2023-05-08T07:32:46.622Z,101312.88
2023-05-08T07:35:15.375Z,101316.63
2023-05-08T07:37:44.527Z,101319.19
2023-05-08T07:40:12.195Z,101321.81
2023-05-08T07:42:41.151Z,101315.63
2023-05-08T07:45:09.961Z,101319.81
2023-05-08T07:47:37.334Z,101317.22
2023-05-08T07:50:05.611Z,101316.28
2023-05-08T07:52:32.965Z,101313.16
2023-05-08T07:55:01.677Z,101310.97
2023-05-08T07:57:29.083Z,101306.94
2023-05-08T08:00:03.611Z,101310.47
2023-05-08T08:02:31.124Z,101301.66
2023-05-08T08:04:58.608Z,101304.41
2023-05-08T08:07:26.008Z,101310.84
2023-05-08T08:09:53.722Z,101308.91
2023-05-08T08:12:23.743Z,101307.19
2023-05-08T08:14:51.209Z,101312.59
2023-05-08T08:17:18.812Z,101298.19
2023-05-08T08:19:46.304Z,101298.03
2023-05-08T08:22:13.671Z,101308.50
2023-05-08T08:24:41.187Z,101304.91
2023-05-08T08:27:08.626Z,101289.28
2023-05-08T08:29:37.366Z,101308.28
2023-05-08T08:32:05.165Z,101293.63
2023-05-08T08:34:34.426Z,101292.31
2023-05-08T08:37:01.859Z,101298.78
2023-05-08T08:39:33.049Z,101295.47
2023-05-08T08:42:00.658Z,101299.31
2023-05-08T08:44:28.677Z,101305.09
2023-05-08T08:46:59.986Z,101299.38
2023-05-08T08:49:31.781Z,101295.50
2023-05-08T08:52:03.666Z,101300.47
2023-05-08T08:54:34.895Z,101293.25
2023-05-08T08:57:07.062Z,101294.94
2023-05-08T08:59:35.231Z,101298.22
2023-05-08T09:02:08.767Z,101295.13
2023-05-08T09:04:36.284Z,101290.69
2023-05-08T09:07:05.339Z,101295.50
2023-05-08T09:09:33.930Z,101292.84
2023-05-08T09:12:01.361Z,101288.13
2023-05-08T09:14:28.794Z,101285.47
2023-05-08T09:16:56.262Z,101283.75
2023-05-08T09:19:28.776Z,101279.22
2023-05-08T09:22:00.530Z,101283.78
2023-05-08T09:24:57.755Z,101287.94
2023-05-08T09:27:26.706Z,101282.13
2023-05-08T09:30:02.833Z,101271.78
2023-05-08T09:32:30.772Z,101270.81
2023-05-08T09:34:59.852Z,101258.41
2023-05-08T09:37:28.402Z,101269.50
2023-05-08T09:39:55.841Z,101265.19
2023-05-08T09:42:25.299Z,101257.25
2023-05-08T09:44:53.815Z,101260.53
2023-05-08T09:47:23.022Z,101249.84
2023-05-08T09:50:02.832Z,101258.28
2023-05-08T09:52:31.646Z,101254.16
2023-05-08T09:54:59.908Z,101253.50
2023-05-08T09:57:28.444Z,101248.38
2023-05-08T10:00:03.406Z,101255.53
2023-05-08T10:02:30.816Z,101252.34
2023-05-08T10:04:58.679Z,101248.06
2023-05-08T10:07:31.049Z,101249.44
2023-05-08T10:10:00.149Z,101244.03
2023-05-08T10:12:27.735Z,101250.44
2023-05-08T10:14:55.297Z,101241.97
2023-05-08T10:17:28.010Z,101246.44
2023-05-08T10:20:00.910Z,101242.34
2023-05-08T10:22:31.098Z,101241.78
2023-05-08T10:25:02.114Z,101245.84
2023-05-08T10:27:35.803Z,101242.97
2023-05-08T10:30:05.029Z,101243.31
2023-05-08T10:32:38.549Z,101242.72
2023-05-08T10:35:09.671Z,101240.38
2023-05-08T10:37:39.530Z,101231.56
2023-05-08T10:40:08.069Z,101236.91
2023-05-08T10:42:36.186Z,101216.19
2023-05-08T10:45:06.334Z,101216.91
2023-05-08T10:47:45.788Z,101213.09
2023-05-08T10:50:29.632Z,101213.44
2023-05-08T10:53:07.496Z,101217.53
2023-05-08T10:55:38.027Z,101212.38
2023-05-08T10:58:09.970Z,101216.72
2023-05-08T11:01:12.859Z,101212.78
2023-05-08T11:03:42.250Z,101198.91
2023-05-08T11:06:10.120Z,101203.25
2023-05-08T11:08:47.819Z,101197.19
2023-05-08T11:11:22.435Z,101205.72
2023-05-08T11:13:54.144Z,101200.94
2023-05-08T11:17:04.102Z,101196.97
2023-05-08T11:19:31.694Z,101186.13
2023-05-08T11:22:16.496Z,101189.19
2023-05-08T11:24:50.992Z,101201.22
2023-05-08T11:27:18.609Z,101188.94
2023-05-08T11:29:46.171Z,101192.13
2023-05-08T11:32:13.582Z,101196.13
2023-05-08T11:34:46.306Z,101188.34
2023-05-08T11:37:18.782Z,101185.00
2023-05-08T11:39:46.386Z,101184.78
2023-05-08T11:42:37.330Z,101173.50
2023-05-08T11:45:07.040Z,101171.44
2023-05-08T11:47:39.840Z,101174.25
2023-05-08T11:50:09.398Z,101177.91
2023-05-08T11:52:38.132Z,101172.34
2023-05-08T11:55:06.876Z,101168.34
2023-05-08T11:57:34.651Z,101172.22
2023-05-08T12:00:06.883Z,101158.06
2023-05-08T12:02:39.075Z,101158.06
2023-05-08T12:05:08.100Z,101146.88
2023-05-08T12:07:44.235Z,101156.94
2023-05-08T12:10:12.325Z,101148.31
2023-05-08T12:12:41.478Z,101147.03
2023-05-08T12:15:12.592Z,101158.69
2023-05-08T12:17:40.798Z,101152.28
2023-05-08T12:20:13.051Z,101160.38
2023-05-08T12:22:41.270Z,101150.25
2023-05-08T12:25:11.811Z,101151.16
2023-05-08T12:27:39.702Z,101147.31
2023-05-08T12:30:09.277Z,101152.66
2023-05-08T12:32:40.934Z,101149.59
2023-05-08T12:35:10.489Z,101142.22
2023-05-08T12:37:38.705Z,101137.50
2023-05-08T12:40:07.668Z,101136.84
2023-05-08T12:42:45.072Z,101141.41
2023-05-08T12:45:18.513Z,101136.59
2023-05-08T12:47:48.853Z,101143.50
2023-05-08T12:50:17.574Z,101142.53
2023-05-08T12:52:45.211Z,101132.50
2023-05-08T12:55:31.050Z,101125.81
2023-05-08T12:58:03.688Z,101123.63
2023-05-08T13:00:41.885Z,101125.03
2023-05-08T13:03:12.480Z,101134.31
2023-05-08T13:05:42.854Z,101116.31
2023-05-08T13:08:10.913Z,101118.56
2023-05-08T13:10:49.438Z,101127.41
2023-05-08T13:13:18.280Z,101130.22
2023-05-08T13:15:45.911Z,101128.31
2023-05-08T13:18:14.925Z,101135.25
2023-05-08T13:20:42.809Z,101130.97
2023-05-08T13:23:11.177Z,101123.66
2023-05-08T13:25:39.210Z,101105.06
2023-05-08T13:28:07.383Z,101105.56
2023-05-08T13:30:35.289Z,101111.25
2023-05-08T13:33:02.782Z,101105.41
2023-05-08T13:35:32.055Z,101106.53
2023-05-08T13:38:00.098Z,101103.31
2023-05-08T13:40:27.840Z,101094.34
2023-05-08T13:42:55.570Z,101109.88
2023-05-08T13:45:23.155Z,101104.69
2023-05-08T13:47:51.294Z,101086.28
2023-05-08T13:50:21.612Z,101088.69
2023-05-08T13:52:53.056Z,101085.75
2023-05-08T13:55:22.792Z,101090.72
2023-05-08T13:57:50.594Z,101075.66
2023-05-08T14:00:19.118Z,101089.03
2023-05-08T14:02:46.684Z,101089.59
2023-05-08T14:05:14.421Z,101086.22
2023-05-08T14:07:42.297Z,101083.88
2023-05-08T14:10:11.822Z,101082.06
2023-05-08T14:12:40.467Z,101075.44
2023-05-08T14:15:09.748Z,101074.59
2023-05-08T14:17:37.230Z,101075.81
2023-05-08T14:20:05.408Z,101084.50
2023-05-08T14:22:33.067Z,101083.88
2023-05-08T14:25:00.463Z,101081.25
2023-05-08T14:27:29.271Z,101083.34
2023-05-08T14:29:56.786Z,101082.19
2023-05-08T14:32:24.255Z,101075.59
2023-05-08T14:34:51.701Z,101067.09
2023-05-08T14:37:19.185Z,101080.22
2023-05-08T14:39:46.543Z,101072.72
2023-05-08T14:42:22.896Z,101057.25
2023-05-08T14:44:52.662Z,101057.81
2023-05-08T14:47:20.072Z,101066.22
2023-05-08T14:49:47.472Z,101067.09
2023-05-08T14:52:14.847Z,101059.94
2023-05-08T14:54:42.645Z,101053.66
2023-05-08T14:57:10.256Z,101063.25
2023-05-08T14:59:39.808Z,101061.72
2023-05-08T15:02:12.461Z,101062.09
2023-05-08T15:04:41.402Z,101058.31
2023-05-08T15:07:08.857Z,101051.34
2023-05-08T15:09:36.325Z,101053.13
2023-05-08T15:12:04.038Z,101050.47
2023-05-08T15:14:31.425Z,101057.19
2023-05-08T15:16:59.146Z,101049.16
2023-05-08T15:19:27.861Z,101053.88
2023-05-08T15:21:55.803Z,101045.22
2023-05-08T15:24:23.196Z,101044.81
2023-05-08T15:26:50.592Z,101052.72
2023-05-08T15:29:17.970Z,101047.38
2023-05-08T15:31:45.373Z,101045.53
2023-05-08T15:34:12.833Z,101043.44
2023-05-08T15:36:41.569Z,101047.06
2023-05-08T15:39:09.430Z,101046.19
2023-05-08T15:41:37.624Z,101046.94
2023-05-08T15:44:05.170Z,101047.72
2023-05-08T15:46:32.604Z,101046.94
2023-05-08T15:49:01.984Z,101046.47
2023-05-08T15:51:30.311Z,101046.84
2023-05-08T15:53:59.460Z,101052.53
2023-05-08T15:56:26.933Z,101050.00
2023-05-08T15:58:54.534Z,101054.84
2023-05-08T16:01:21.997Z,101043.69
2023-05-08T16:03:49.491Z,101044.53
2023-05-08T16:06:17.138Z,101036.88
2023-05-08T16:08:44.789Z,101030.28
2023-05-08T16:11:13.580Z,101033.22
2023-05-08T16:13:41.005Z,101024.94
2023-05-08T16:16:08.470Z,101028.63
2023-05-08T16:18:36.009Z,101023.59
2023-05-08T16:21:09.342Z,101029.41
2023-05-08T16:23:36.747Z,101025.69
2023-05-08T16:26:04.223Z,101028.84
2023-05-08T16:28:34.194Z,101029.38
2023-05-08T16:31:02.075Z,101029.50
2023-05-08T16:33:29.572Z,101022.19
2023-05-08T16:35:57.081Z,101030.88
2023-05-08T16:38:24.538Z,101034.59
2023-05-08T16:40:51.964Z,101032.16
2023-05-08T16:43:19.476Z,101031.13
2023-05-08T16:45:51.098Z,101035.81
2023-05-08T16:48:18.445Z,101027.84
2023-05-08T16:50:45.791Z,101032.41
2023-05-08T16:53:13.210Z,101031.28
2023-05-08T16:55:41.225Z,101030.56
2023-05-08T16:58:08.779Z,101032.69
2023-05-08T17:00:36.331Z,101029.47
2023-05-08T17:03:05.297Z,101031.16
2023-05-08T17:05:33.395Z,101035.50
2023-05-08T17:08:00.789Z,101032.97
2023-05-08T17:10:28.253Z,101038.41
2023-05-08T17:12:56.230Z,101044.47
2023-05-08T17:15:26.989Z,101037.34
2023-05-08T17:17:55.875Z,101045.25
2023-05-08T17:20:24.726Z,101035.59
2023-05-08T17:22:56.962Z,101039.69
2023-05-08T17:25:24.642Z,101047.34
2023-05-08T17:27:52.188Z,101041.09
2023-05-08T17:30:19.565Z,101047.72
2023-05-08T17:32:51.513Z,101053.09
2023-05-08T17:35:19.551Z,101050.56
2023-05-08T17:37:48.602Z,101053.19
2023-05-08T17:40:19.949Z,101050.09
2023-05-08T17:42:47.386Z,101053.09
2023-05-08T17:45:14.763Z,101054.47
2023-05-08T17:47:42.188Z,101053.28
2023-05-08T17:50:11.153Z,101066.44
2023-05-08T17:52:38.687Z,101068.28
2023-05-08T17:55:08.721Z,101073.44
2023-05-08T17:57:36.222Z,101078.03
2023-05-08T18:00:04.252Z,101080.53
2023-05-08T18:02:31.726Z,101075.50
2023-05-08T18:04:59.182Z,101083.47
2023-05-08T18:07:26.558Z,101083.41
2023-05-08T18:09:54.402Z,101084.34
2023-05-08T18:12:23.129Z,101088.53
2023-05-08T18:14:50.746Z,101086.19
2023-05-08T18:17:19.214Z,101092.97
2023-05-08T18:19:46.817Z,101107.03
2023-05-08T18:22:14.313Z,101107.88
2023-05-08T18:24:41.850Z,101104.38
2023-05-08T18:27:09.275Z,101105.06
2023-05-08T18:29:38.075Z,101107.44
2023-05-08T18:32:06.245Z,101110.88
2023-05-08T18:34:33.720Z,101109.91
2023-05-08T18:37:01.085Z,101112.75
2023-05-08T18:39:28.798Z,101113.56
2023-05-08T18:41:56.237Z,101114.94
2023-05-08T18:44:23.643Z,101120.38
2023-05-08T18:46:52.405Z,101129.53
2023-05-08T18:49:19.822Z,101121.34
2023-05-08T18:51:47.258Z,101128.13
2023-05-08T18:54:15.397Z,101124.03
2023-05-08T18:56:42.805Z,101127.16
2023-05-08T18:59:10.190Z,101129.56
2023-05-08T19:01:37.550Z,101128.25
2023-05-08T19:04:06.499Z,101140.78
2023-05-08T19:06:34.045Z,101145.38
2023-05-08T19:09:01.722Z,101142.19
2023-05-08T19:11:29.193Z,101156.31
2023-05-08T19:13:56.758Z,101157.38
2023-05-08T19:16:25.404Z,101145.13
2023-05-08T19:18:52.911Z,101150.84
2023-05-08T19:21:21.630Z,101153.69
2023-05-08T19:23:48.995Z,101153.38
2023-05-08T19:26:16.489Z,101158.53
2023-05-08T19:28:43.969Z,101161.03
2023-05-08T19:31:11.503Z,101156.84
2023-05-08T19:33:38.933Z,101156.78
2023-05-08T19:36:06.669Z,101158.09
2023-05-08T19:38:37.060Z,101153.13
2023-05-08T19:41:04.430Z,101160.28
2023-05-08T19:43:31.960Z,101156.13
2023-05-08T19:45:59.562Z,101163.34
2023-05-08T19:48:27.035Z,101159.59
2023-05-08T19:50:57.973Z,101158.22
2023-05-08T19:53:25.427Z,101158.59
2023-05-08T19:55:54.170Z,101159.56
2023-05-08T19:58:21.557Z,101154.69
2023-05-08T20:00:51.557Z,101165.25
2023-05-08T20:03:19.899Z,101162.19
2023-05-08T20:05:47.460Z,101154.97
2023-05-08T20:08:14.886Z,101158.44
2023-05-08T20:10:42.291Z,101172.41
2023-05-08T20:13:11.067Z,101164.03
2023-05-08T20:15:38.507Z,101169.34
2023-05-08T20:18:06.213Z,101166.75
2023-05-08T20:20:34.794Z,101164.25
2023-05-08T20:23:02.867Z,101171.63
2023-05-08T20:25:30.257Z,101171.47
2023-05-08T20:27:57.692Z,101180.22
2023-05-08T20:30:26.680Z,101177.06
2023-05-08T20:32:54.141Z,101172.69
2023-05-08T20:35:21.679Z,101171.84
2023-05-08T20:37:49.373Z,101175.34
2023-05-08T20:40:17.015Z,101174.38
2023-05-08T20:42:44.564Z,101177.00
2023-05-08T20:45:12.765Z,101170.88
2023-05-08T20:47:41.558Z,101173.38
2023-05-08T20:50:09.280Z,101170.41
2023-05-08T20:52:38.408Z,101172.34
2023-05-08T20:55:08.125Z,101171.06
2023-05-08T20:57:35.560Z,101179.28
2023-05-08T21:00:03.466Z,101175.31
2023-05-08T21:02:30.845Z,101169.41
2023-05-08T21:05:00.066Z,101175.97
2023-05-08T21:07:27.583Z,101178.13
2023-05-08T21:09:54.947Z,101169.03
2023-05-08T21:12:22.801Z,101168.91
2023-05-08T21:14:50.705Z,101171.53
2023-05-08T21:17:18.311Z,101169.91
2023-05-08T21:19:45.700Z,101173.84
2023-05-08T21:22:14.413Z,101157.91
2023-05-08T21:24:43.774Z,101166.63
2023-05-08T21:27:11.271Z,101170.06
2023-05-08T21:29:38.924Z,101168.91
2023-05-08T21:32:09.492Z,101169.75
2023-05-08T21:34:37.633Z,101165.47
2023-05-08T21:37:05.031Z,101158.56
2023-05-08T21:39:33.742Z,101153.13
2023-05-08T21:42:01.262Z,101150.84
2023-05-08T21:44:28.636Z,101151.13
2023-05-08T21:46:56.071Z,101157.06
2023-05-08T21:49:23.517Z,101147.19
2023-05-08T21:51:51.011Z,101151.44
2023-05-08T21:54:20.667Z,101150.78
2023-05-08T21:56:49.523Z,101145.19
2023-05-08T21:59:16.968Z,101160.31
2023-05-08T22:01:44.999Z,101150.44
2023-05-08T22:04:12.482Z,101154.06
2023-05-08T22:06:39.930Z,101155.38
2023-05-08T22:09:07.336Z,101154.22
2023-05-08T22:11:34.699Z,101160.25
2023-05-08T22:14:03.455Z,101159.88
2023-05-08T22:16:30.849Z,101158.72
2023-05-08T22:18:58.260Z,101163.41
2023-05-08T22:21:29.388Z,101150.50
2023-05-08T22:23:57.130Z,101143.22
2023-05-08T22:26:24.678Z,101146.06
2023-05-08T22:28:52.044Z,101145.06
2023-05-08T22:31:20.918Z,101140.97
2023-05-08T22:33:48.553Z,101148.97
2023-05-08T22:36:15.925Z,101141.41
2023-05-08T22:38:43.308Z,101141.56
2023-05-08T22:41:10.705Z,101139.72
2023-05-08T22:43:38.280Z,101134.19
2023-05-08T22:46:06.716Z,101144.81
2023-05-08T22:48:36.093Z,101142.84
2023-05-08T22:51:03.615Z,101139.59
2023-05-08T22:53:31.020Z,101139.38
2023-05-08T22:55:58.481Z,101134.63
2023-05-08T22:58:27.193Z,101133.72
2023-05-08T23:00:54.637Z,101133.66
2023-05-08T23:03:22.067Z,101125.09
2023-05-08T23:05:51.071Z,101131.88
2023-05-08T23:08:18.441Z,101137.78
2023-05-08T23:10:45.833Z,101132.56
2023-05-08T23:13:13.232Z,101140.94
2023-05-08T23:15:40.807Z,101128.56
2023-05-08T23:18:08.539Z,101135.97
2023-05-08T23:20:35.974Z,101134.00
2023-05-08T23:23:04.728Z,101124.50
2023-05-08T23:25:32.449Z,101126.06
2023-05-08T23:27:59.828Z,101123.88
2023-05-08T23:30:27.340Z,101127.97
2023-05-08T23:32:54.780Z,101132.00
2023-05-08T23:35:22.261Z,101135.34
2023-05-08T23:37:49.620Z,101134.91
2023-05-08T23:40:18.468Z,101128.94
2023-05-08T23:42:45.861Z,101128.91
2023-05-08T23:45:13.528Z,101123.44
2023-05-08T23:47:41.418Z,101121.31
2023-05-08T23:50:09.234Z,101123.63
2023-05-08T23:52:36.630Z,101131.94
2023-05-08T23:55:04.315Z,101129.41
2023-05-08T23:57:33.018Z,101122.88
